Time;durP1;ratioP1;P1;durP2;ratioP2;P2;SDS_P1;SDS_P2;PMS_P1;PMS_P2;Temp;Humidity;BMP_temperature;BMP_pressure;BME280_temperature;BME280_humidity;BME280_pressure;Samples;Min_cycle;Max_cycle;Signal;HPM_P1;HPM_P2
2022/06/10 00:00:55;;;;;;;6.35;1.58;;;9.30;99.90;;;;;;5090839;28;20463;-80
2022/06/10 00:03:25;;;;;;;2.95;1.92;;;9.20;99.90;;;;;;5093051;28;20065;-80
2022/06/10 00:05:52;;;;;;;;;;;9.10;99.90;;;;;;5098704;28;20040;-79
2022/06/10 00:08:22;;;;;;;9.73;2.65;;;9.00;99.90;;;;;;5096064;28;20090;-78
2022/06/10 00:10:51;;;;;;;3.88;1.38;;;8.90;99.90;;;;;;5099501;28;20124;-79
2022/06/10 00:13:19;;;;;;;3.17;1.80;;;8.90;99.90;;;;;;5113100;28;20541;-79
2022/06/10 00:15:45;;;;;;;3.97;1.73;;;8.90;99.90;;;;;;5111033;28;20020;-78
2022/06/10 00:18:12;;;;;;;2.22;1.73;;;8.90;99.90;;;;;;5111728;28;20545;-78
2022/06/10 00:20:37;;;;;;;3.20;1.67;;;8.90;99.90;;;;;;5111533;28;20024;-79
2022/06/10 00:23:03;;;;;;;2.00;1.52;;;8.90;99.90;;;;;;5109311;28;20031;-79
2022/06/10 00:25:29;;;;;;;2.83;1.58;;;8.80;99.90;;;;;;5109425;28;20126;-78
2022/06/10 00:27:56;;;;;;;4.80;1.45;;;;;;;;;;5109289;28;20066;-79
2022/06/10 00:30:25;;;;;;;6.95;2.22;;;8.80;99.90;;;;;;5111557;28;20032;-79
2022/06/10 00:32:51;;;;;;;1.80;1.60;;;8.80;99.90;;;;;;5112461;28;20107;-80
2022/06/10 00:35:17;;;;;;;2.35;1.30;;;8.70;99.90;;;;;;5111761;28;20162;-79
2022/06/10 00:37:43;;;;;;;3.28;2.95;;;8.70;99.90;;;;;;5115560;28;20024;-79
2022/06/10 00:40:15;;;;;;;5.07;1.50;;;8.70;99.90;;;;;;5115989;28;20031;-79
2022/06/10 00:42:41;;;;;;;3.03;2.15;;;8.60;99.90;;;;;;5110478;28;20020;-79
2022/06/10 00:45:47;;;;;;;2.85;1.70;;;8.50;99.90;;;;;;5109479;28;20108;-79
2022/06/10 00:48:36;;;;;;;4.32;2.97;;;8.50;99.90;;;;;;5108783;28;20050;-79
2022/06/10 00:51:19;;;;;;;3.20;1.90;;;8.50;99.90;;;;;;5110367;27;20027;-79
2022/06/10 00:53:47;;;;;;;7.30;1.88;;;8.30;99.90;;;;;;5109433;28;20369;-79
2022/06/10 00:56:17;;;;;;;2.83;1.85;;;8.20;99.90;;;;;;5108759;28;20144;-79
2022/06/10 00:59:01;;;;;;;10.85;2.67;;;8.20;99.90;;;;;;5111123;28;20024;-79
2022/06/10 01:01:28;;;;;;;3.33;1.40;;;8.20;99.90;;;;;;5108135;28;20020;-78
2022/06/10 01:03:54;;;;;;;4.30;2.17;;;8.20;99.90;;;;;;5108463;28;20433;-79
2022/06/10 01:06:21;;;;;;;4.00;2.00;;;8.20;99.90;;;;;;5108143;28;20062;-79
2022/06/10 01:08:49;;;;;;;2.50;1.67;;;8.20;99.90;;;;;;5107682;28;20403;-79
2022/06/10 01:11:42;;;;;;;6.13;1.83;;;8.10;99.90;;;;;;5100547;28;20042;-79
2022/06/10 01:14:20;;;;;;;4.30;1.90;;;8.10;99.90;;;;;;5089221;28;20024;-80
2022/06/10 01:16:58;;;;;;;2.10;1.90;;;8.00;99.90;;;;;;5087385;28;20099;-80
2022/06/10 01:19:46;;;;;;;3.00;1.98;;;7.90;99.90;;;;;;5087349;28;20381;-79
2022/06/10 01:22:34;;;;;;;3.35;1.27;;;7.80;99.90;;;;;;5089124;28;20093;-79
2022/06/10 01:25:26;;;;;;;2.55;1.60;;;7.80;99.90;;;;;;5088978;28;20082;-78
2022/06/10 01:27:59;;;;;;;1.55;1.40;;;7.70;99.90;;;;;;5089093;28;20024;-79
2022/06/10 01:30:39;;;;;;;6.82;2.35;;;9.30;99.90;;;;;;5090011;28;20626;-79
2022/06/10 01:33:24;;;;;;;3.10;2.05;;;7.70;99.90;;;;;;5088184;28;20028;-80
2022/06/10 01:36:36;;;;;;;3.78;1.63;;;7.60;99.90;;;;;;5088148;28;20397;-79
2022/06/10 01:39:25;;;;;;;3.10;1.70;;;7.70;99.90;;;;;;5089674;28;20020;-79
2022/06/10 01:41:56;;;;;;;6.70;1.60;;;7.60;99.90;;;;;;5089568;28;20353;-79
2022/06/10 01:44:35;;;;;;;4.72;2.53;;;7.60;99.90;;;;;;5088706;28;20128;-79
2022/06/10 01:47:08;;;;;;;3.22;2.67;;;7.60;99.90;;;;;;5091409;28;20028;-79
2022/06/10 01:49:59;;;;;;;3.22;1.67;;;7.60;99.90;;;;;;5089587;28;20396;-80
2022/06/10 01:52:36;;;;;;;7.50;2.05;;;7.60;99.90;;;;;;5089842;28;20031;-79
2022/06/10 01:55:13;;;;;;;9.48;2.25;;;7.60;99.90;;;;;;5089795;28;20468;-79
2022/06/10 01:57:55;;;;;;;5.53;2.40;;;7.60;99.90;;;;;;5091005;28;20028;-79
2022/06/10 02:00:25;;;;;;;4.82;1.50;;;7.60;99.90;;;;;;5091507;28;20031;-80
2022/06/10 02:03:21;;;;;;;6.95;1.95;;;7.60;99.90;;;;;;5091216;28;20024;-80
2022/06/10 02:06:02;;;;;;;2.58;1.95;;;7.50;99.90;;;;;;5090687;28;20055;-79
2022/06/10 02:08:37;;;;;;;3.13;1.60;;;7.50;99.90;;;;;;5090729;28;20020;-80
2022/06/10 02:11:10;;;;;;;4.75;2.10;;;7.50;99.90;;;;;;5092512;28;20107;-79
2022/06/10 02:13:50;;;;;;;4.53;1.75;;;7.50;99.90;;;;;;5090119;28;20111;-79
2022/06/10 02:16:21;;;;;;;3.58;1.80;;;7.40;99.90;;;;;;5092813;28;20024;-80
2022/06/10 02:18:55;;;;;;;3.40;2.08;;;7.40;99.90;;;;;;5094018;28;20020;-80
2022/06/10 02:21:31;;;;;;;4.68;1.80;;;7.30;99.90;;;;;;5093161;28;20380;-79
2022/06/10 02:24:10;;;;;;;7.97;1.98;;;7.30;99.90;;;;;;5091800;28;20027;-80
2022/06/10 02:26:38;;;;;;;4.00;2.40;;;7.20;99.90;;;;;;5091932;28;20031;-80
2022/06/10 02:29:09;;;;;;;6.70;3.17;;;7.20;99.90;;;;;;5093247;28;20024;-80
2022/06/10 02:31:50;;;;;;;2.72;1.80;;;7.20;99.90;;;;;;5092283;28;20020;-79
2022/06/10 02:34:16;;;;;;;7.47;2.90;;;7.20;99.90;;;;;;5091478;28;20063;-80
2022/06/10 02:37:06;;;;;;;3.13;2.10;;;7.10;99.90;;;;;;5091485;28;20081;-80
2022/06/10 02:39:49;;;;;;;;;;;7.10;99.90;;;;;;5089980;28;20092;-79
2022/06/10 02:42:44;;;;;;;5.10;1.60;;;7.10;99.90;;;;;;5090805;28;20131;-80
2022/06/10 02:45:28;;;;;;;4.38;1.75;;;7.10;99.90;;;;;;5058668;28;20462;-80
2022/06/10 02:48:00;;;;;;;1.90;1.63;;;7.10;99.90;;;;;;5091486;28;20029;-79
2022/06/10 02:50:26;;;;;;;2.67;1.80;;;7.00;99.90;;;;;;5089452;28;20515;-80
2022/06/10 02:52:52;;;;;;;4.25;2.50;;;7.00;99.90;;;;;;5089645;28;20433;-79
2022/06/10 02:55:22;;;;;;;6.10;1.98;;;7.00;99.90;;;;;;5089906;28;20031;-79
2022/06/10 03:01:11;;;;;;;1.80;1.70;;;6.90;99.90;;;;;;5091327;28;20059;-80
2022/06/10 03:04:11;;;;;;;5.90;2.13;;;6.90;99.90;;;;;;5091351;28;20032;-79
2022/06/10 03:06:59;;;;;;;2.35;1.95;;;6.90;99.90;;;;;;5089305;28;20444;-79
2022/06/10 03:09:30;;;;;;;6.57;2.90;;;6.90;99.90;;;;;;5089153;28;20039;-79
2022/06/10 03:12:11;;;;;;;3.95;2.72;;;7.00;99.90;;;;;;5092207;28;20020;-79
2022/06/10 03:15:03;;;;;;;6.55;2.88;;;6.80;99.90;;;;;;5096703;28;20024;-79
2022/06/10 03:18:02;;;;;;;3.80;2.08;;;6.90;99.90;;;;;;5092672;28;20069;-79
2022/06/10 03:20:40;;;;;;;2.63;1.85;;;6.80;99.90;;;;;;5091294;28;20394;-79
2022/06/10 03:23:26;;;;;;;3.42;2.90;;;6.80;99.90;;;;;;5095350;28;20099;-80
2022/06/10 03:26:00;;;;;;;5.75;2.10;;;6.70;99.90;;;;;;5097122;28;20044;-79
2022/06/10 03:28:44;;;;;;;3.92;1.85;;;6.70;99.90;;;;;;5094059;28;20089;-79
2022/06/10 03:31:33;;;;;;;4.57;2.20;;;6.80;99.90;;;;;;5094387;28;20031;-79
2022/06/10 03:34:25;;;;;;;3.65;2.38;;;6.90;99.90;;;;;;5099161;28;20048;-79
2022/06/10 03:36:55;;;;;;;2.58;1.77;;;6.80;99.90;;;;;;5101723;28;20032;-80
2022/06/10 03:39:23;;;;;;;6.95;2.10;;;6.90;99.90;;;;;;5097418;28;20538;-79
2022/06/10 03:42:03;;;;;;;8.75;2.88;;;6.80;99.90;;;;;;5093264;28;20061;-79
2022/06/10 03:44:31;;;;;;;14.02;4.38;;;6.80;99.90;;;;;;5093675;28;20032;-79
2022/06/10 03:46:58;;;;;;;4.25;2.22;;;6.80;99.90;;;;;;5095779;28;20059;-78
2022/06/10 03:49:29;;;;;;;3.42;2.72;;;6.80;99.90;;;;;;5095960;28;20350;-80
2022/06/10 03:51:55;;;;;;;8.15;2.38;;;;;;;;;;5097700;28;20388;-80
2022/06/10 03:54:21;;;;;;;4.13;2.58;;;6.90;99.90;;;;;;5099970;28;20024;-80
2022/06/10 03:56:47;;;;;;;3.70;2.10;;;7.00;99.90;;;;;;5101253;28;20026;-79
2022/06/10 03:59:13;;;;;;;3.60;2.70;;;7.00;99.90;;;;;;5094192;28;20080;-80
2022/06/10 04:01:39;;;;;;;8.07;2.83;;;7.00;99.90;;;;;;5093739;28;20099;-80
2022/06/10 04:04:05;;;;;;;4.28;2.15;;;7.10;99.90;;;;;;5092373;28;20392;-79
2022/06/10 04:06:31;;;;;;;7.70;2.55;;;9.30;99.90;;;;;;5092638;28;20032;-79
2022/06/10 04:08:57;;;;;;;8.55;1.90;;;7.10;99.90;;;;;;5092321;28;20024;-79
2022/06/10 04:11:24;;;;;;;3.17;1.77;;;7.10;99.90;;;;;;5092386;28;20027;-79
2022/06/10 04:13:50;;;;;;;4.05;2.08;;;7.20;99.90;;;;;;5093221;28;20024;-79
2022/06/10 04:16:16;;;;;;;3.30;2.00;;;7.20;99.90;;;;;;5093190;28;20472;-79
2022/06/10 04:18:42;;;;;;;4.35;2.67;;;7.20;99.90;;;;;;5092443;28;20024;-79
2022/06/10 04:21:08;;;;;;;3.60;1.95;;;7.30;99.90;;;;;;5092849;28;20040;-79
2022/06/10 04:23:33;;;;;;;6.07;2.60;;;7.40;99.90;;;;;;5093187;28;20380;-79
2022/06/10 04:26:00;;;;;;;4.63;2.45;;;7.50;99.90;;;;;;5093253;28;20096;-79
2022/06/10 04:28:25;;;;;;;3.17;2.28;;;7.60;99.90;;;;;;5093647;28;20251;-80
2022/06/10 04:30:52;;;;;;;2.53;2.33;;;7.70;99.90;;;;;;5092112;28;20599;-79
2022/06/10 04:33:19;;;;;;;2.67;1.65;;;7.70;99.90;;;;;;5091486;28;20373;-79
2022/06/10 04:35:47;;;;;;;1.52;1.35;;;7.80;99.90;;;;;;5091375;28;20478;-79
2022/06/10 04:38:15;;;;;;;2.85;1.70;;;7.90;99.90;;;;;;5092852;28;20246;-79
2022/06/10 04:40:42;;;;;;;11.80;2.10;;;8.00;99.90;;;;;;5093853;28;20035;-79
2022/06/10 04:43:09;;;;;;;1.83;1.65;;;8.20;99.90;;;;;;5091638;28;20020;-80
2022/06/10 04:45:39;;;;;;;5.25;2.00;;;8.50;99.90;;;;;;5090796;28;20036;-80
2022/06/10 04:48:05;;;;;;;2.80;1.33;;;8.80;99.90;;;;;;5096754;28;20024;-80
2022/06/10 04:50:41;;;;;;;2.33;1.48;;;8.90;99.90;;;;;;5100077;28;20035;-79
2022/06/10 04:53:07;;;;;;;3.63;2.28;;;9.60;99.90;;;;;;5095433;28;20016;-80
2022/06/10 04:55:33;;;;;;;5.10;1.85;;;9.60;99.90;;;;;;5095980;28;20030;-81
2022/06/10 04:58:00;;;;;;;3.63;1.30;;;9.90;99.90;;;;;;5095753;28;20098;-80
2022/06/10 05:00:30;;;;;;;4.05;1.33;;;9.80;99.90;;;;;;5096530;28;20042;-79
2022/06/10 05:02:56;;;;;;;3.03;1.48;;;9.80;99.90;;;;;;5092833;28;20163;-80
2022/06/10 05:05:22;;;;;;;5.82;1.65;;;9.80;99.90;;;;;;5092163;28;20027;-79
2022/06/10 05:07:48;;;;;;;2.95;2.30;;;9.70;99.90;;;;;;5101872;28;20388;-79
2022/06/10 05:10:15;;;;;;;4.75;1.55;;;9.80;99.90;;;;;;5093093;28;20020;-80
2022/06/10 05:12:40;;;;;;;8.10;3.35;;;9.80;99.90;;;;;;5093121;28;20048;-79
2022/06/10 05:15:07;;;;;;;4.38;1.88;;;9.80;99.90;;;;;;5092255;28;20017;-80
2022/06/10 05:17:33;;;;;;;2.95;1.52;;;9.90;99.90;;;;;;5093859;28;20647;-80
2022/06/10 05:19:59;;;;;;;5.20;1.83;;;10.10;99.90;;;;;;5093442;28;20028;-79
2022/06/10 05:22:24;;;;;;;1.67;1.50;;;10.10;99.90;;;;;;5094526;28;20025;-79
2022/06/10 05:24:50;;;;;;;5.32;1.88;;;10.20;99.90;;;;;;5095962;28;20468;-80
2022/06/10 05:27:16;;;;;;;2.58;1.90;;;10.20;99.90;;;;;;5096095;28;20426;-80
2022/06/10 05:29:41;;;;;;;7.43;1.77;;;10.20;99.90;;;;;;5094929;28;20028;-80
2022/06/10 05:32:07;;;;;;;2.15;1.70;;;10.20;99.90;;;;;;5100632;28;20024;-79
2022/06/10 05:34:46;;;;;;;5.28;2.03;;;10.20;99.90;;;;;;5100219;28;20089;-78
2022/06/10 05:37:17;;;;;;;6.50;1.65;;;10.40;99.90;;;;;;5100630;28;20115;-79
2022/06/10 05:39:44;;;;;;;6.72;1.50;;;10.60;99.90;;;;;;5095481;28;20020;-79
2022/06/10 05:42:10;;;;;;;5.25;1.35;;;10.70;99.90;;;;;;5095395;28;20077;-79
2022/06/10 05:44:42;;;;;;;3.75;2.20;;;10.70;99.90;;;;;;5095754;28;20239;-79
2022/06/10 05:47:15;;;;;;;3.40;2.13;;;10.80;99.90;;;;;;5094821;28;20031;-79
2022/06/10 05:49:44;;;;;;;4.85;2.08;;;10.90;99.90;;;;;;5093449;28;20020;-79
2022/06/10 05:52:10;;;;;;;8.00;3.83;;;11.10;99.90;;;;;;5093517;28;20024;-79
2022/06/10 05:54:39;;;;;;;3.97;1.73;;;11.10;99.90;;;;;;5093247;28;20019;-79
2022/06/10 05:57:05;;;;;;;4.03;1.58;;;11.30;99.90;;;;;;5092419;28;20017;-80
2022/06/10 05:59:33;;;;;;;2.22;1.80;;;11.30;99.90;;;;;;5090431;28;20042;-80
2022/06/10 06:02:00;;;;;;;6.95;2.22;;;11.40;99.90;;;;;;5088871;28;20027;-79
2022/06/10 06:04:25;;;;;;;5.53;2.45;;;11.60;99.90;;;;;;5088324;28;20449;-79
2022/06/10 06:06:51;;;;;;;5.28;1.98;;;12.00;99.90;;;;;;5089797;28;20038;-80
2022/06/10 06:09:18;;;;;;;3.20;1.55;;;12.20;99.90;;;;;;5090320;28;20016;-79
2022/06/10 06:11:46;;;;;;;4.82;1.60;;;12.40;99.90;;;;;;5090948;28;20095;-79
2022/06/10 06:14:13;;;;;;;6.78;1.70;;;12.50;99.90;;;;;;5090208;28;20366;-79
2022/06/10 06:16:39;;;;;;;7.32;1.80;;;12.60;99.90;;;;;;5093269;28;20235;-79
2022/06/10 06:19:05;;;;;;;4.72;1.60;;;12.60;99.90;;;;;;5093555;28;20016;-79
2022/06/10 06:21:31;;;;;;;4.60;1.50;;;12.80;99.90;;;;;;5095470;28;20051;-79
2022/06/10 06:23:58;;;;;;;3.53;1.83;;;12.90;99.90;;;;;;5099437;28;20468;-79
2022/06/10 06:26:25;;;;;;;2.35;1.48;;;13.00;99.90;;;;;;5092502;28;20047;-79
2022/06/10 06:28:51;;;;;;;5.38;1.40;;;12.80;99.90;;;;;;5092699;28;20076;-79
2022/06/10 06:31:17;;;;;;;3.45;1.67;;;12.90;99.90;;;;;;5093329;28;20032;-79
2022/06/10 06:33:42;;;;;;;2.53;1.33;;;13.00;99.90;;;;;;5092252;28;20032;-80
2022/06/10 06:36:17;;;;;;;2.50;1.17;;;13.30;99.90;;;;;;5093171;28;20028;-79
2022/06/10 06:38:43;;;;;;;2.83;1.20;;;13.50;99.90;;;;;;5091694;28;20024;-79
2022/06/10 06:41:11;;;;;;;2.70;1.08;;;14.40;99.90;;;;;;5089570;28;20028;-80
2022/06/10 06:43:36;;;;;;;1.75;0.98;;;15.50;99.90;;;;;;5089182;28;20419;-79
2022/06/10 06:46:03;;;;;;;1.23;1.02;;;16.90;99.90;;;;;;5086192;28;20088;-79
2022/06/10 06:48:29;;;;;;;1.23;0.68;;;18.00;99.90;;;;;;5087683;28;20507;-78
2022/06/10 06:50:55;;;;;;;0.70;0.63;;;17.90;99.90;;;;;;5089360;28;20103;-79
2022/06/10 06:53:21;;;;;;;4.72;0.77;;;19.00;99.90;;;;;;5088010;28;20028;-78
2022/06/10 06:55:47;;;;;;;2.58;0.95;;;19.60;99.90;;;;;;5087761;28;20039;-78
2022/06/10 06:58:15;;;;;;;3.63;0.63;;;19.60;99.90;;;;;;5089207;28;20024;-79
2022/06/10 07:00:41;;;;;;;1.48;0.70;;;20.50;99.90;;;;;;5087723;28;20154;-79
2022/06/10 07:03:07;;;;;;;4.85;0.75;;;20.70;96.00;;;;;;5089692;28;20526;-78
2022/06/10 07:05:35;;;;;;;1.85;0.60;;;20.80;95.40;;;;;;5094128;28;20475;-79
2022/06/10 07:08:01;;;;;;;1.98;0.95;;;21.00;94.30;;;;;;5100663;28;20012;-76
2022/06/10 07:10:28;;;;;;;3.53;0.95;;;19.90;99.90;;;;;;5100734;28;20408;-78
2022/06/10 07:12:54;;;;;;;2.88;0.80;;;19.90;99.90;;;;;;5102512;28;20066;-78
2022/06/10 07:15:21;;;;;;;1.60;0.90;;;19.50;99.90;;;;;;5103840;28;20492;-79
2022/06/10 07:17:47;;;;;;;3.30;1.00;;;20.40;99.90;;;;;;5101702;28;20460;-80
2022/06/10 07:20:21;;;;;;;3.25;1.13;;;20.90;94.00;;;;;;5100945;28;20074;-79
2022/06/10 07:22:47;;;;;;;13.13;2.13;;;20.80;96.70;;;;;;5101735;28;20465;-79
2022/06/10 07:25:14;;;;;;;3.40;1.15;;;20.10;99.80;;;;;;5102883;28;20114;-79
2022/06/10 07:27:40;;;;;;;2.75;1.35;;;19.90;99.90;;;;;;5104072;28;20610;-79
2022/06/10 07:30:07;;;;;;;3.20;0.90;;;20.30;99.90;;;;;;5101622;28;20073;-79
2022/06/10 07:32:33;;;;;;;2.92;1.40;;;20.60;99.90;;;;;;5101169;28;20015;-79
2022/06/10 07:34:59;;;;;;;8.70;2.17;;;19.90;99.90;;;;;;5102871;28;20051;-79
2022/06/10 07:37:25;;;;;;;2.72;1.60;;;19.50;99.90;;;;;;5101209;28;20372;-80
2022/06/10 07:39:51;;;;;;;3.08;1.05;;;19.40;99.90;;;;;;5101235;28;20444;-79
2022/06/10 07:42:17;;;;;;;5.93;1.30;;;19.90;99.90;;;;;;5102816;28;20084;-79
2022/06/10 07:44:43;;;;;;;6.03;2.53;;;19.80;99.90;;;;;;5101452;28;20024;-79
2022/06/10 07:47:12;;;;;;;2.63;0.70;;;19.50;99.90;;;;;;5103151;28;20016;-79
2022/06/10 07:49:38;;;;;;;4.72;1.15;;;20.20;99.90;;;;;;5101340;28;20031;-79
2022/06/10 07:52:05;;;;;;;3.03;1.45;;;20.70;97.90;;;;;;5100931;28;20031;-80
2022/06/10 07:54:34;;;;;;;4.00;1.00;;;21.40;97.30;;;;;;5102312;28;20507;-78
2022/06/10 07:57:00;;;;;;;4.90;0.93;;;21.90;90.00;;;;;;5101311;28;20365;-77
2022/06/10 07:59:26;;;;;;;3.78;1.48;;;21.50;98.70;;;;;;5125718;27;20055;-77
2022/06/10 08:01:52;;;;;;;8.85;2.15;;;21.20;85.20;;;;;;5112734;28;20071;-78
2022/06/10 08:04:18;;;;;;;3.53;1.10;;;21.20;96.10;;;;;;5119541;28;20559;-78
2022/06/10 08:06:46;;;;;;;3.00;0.85;;;21.20;99.30;;;;;;5114507;28;20036;-79
2022/06/10 08:09:12;;;;;;;9.48;3.15;;;21.70;86.30;;;;;;5111621;28;20116;-79
2022/06/10 08:11:38;;;;;;;4.38;1.35;;;22.00;76.30;;;;;;5111424;28;20039;-79
2022/06/10 08:14:05;;;;;;;3.33;0.68;;;22.80;72.30;;;;;;5109050;28;20042;-79
2022/06/10 08:16:31;;;;;;;5.05;1.63;;;23.50;66.30;;;;;;5109097;28;20051;-79
2022/06/10 08:18:57;;;;;;;3.25;0.70;;;22.80;68.10;;;;;;5109435;28;20020;-79
2022/06/10 08:24:07;;;;;;;5.00;0.70;;;22.90;66.40;;;;;;5110819;28;20035;-79
2022/06/10 08:26:34;;;;;;;1.38;0.50;;;22.80;65.60;;;;;;5110552;28;20061;-79
2022/06/10 08:29:00;;;;;;;1.52;0.68;;;22.90;66.40;;;;;;5110709;28;20143;-79
2022/06/10 08:31:26;;;;;;;2.00;0.68;;;22.40;72.10;;;;;;5110318;28;20389;-79
2022/06/10 08:33:52;;;;;;;2.47;0.50;;;22.00;73.60;;;;;;5109913;28;20050;-79
2022/06/10 08:36:18;;;;;;;8.30;1.52;;;22.00;86.80;;;;;;5108362;28;20027;-79
2022/06/10 08:38:44;;;;;;;1.83;0.50;;;21.90;72.40;;;;;;5109723;28;20090;-79
2022/06/10 08:41:21;;;;;;;2.22;0.68;;;22.30;70.80;;;;;;5111888;28;20256;-78
2022/06/10 08:43:55;;;;;;;2.72;1.48;;;21.60;74.30;;;;;;5111673;28;20020;-79
2022/06/10 08:46:45;;;;;;;6.68;1.38;;;21.90;82.20;;;;;;5110419;28;20504;-79
2022/06/10 08:49:22;;;;;;;2.60;0.82;;;21.60;75.50;;;;;;5111667;28;20182;-79
2022/06/10 08:51:59;;;;;;;2.58;0.70;;;21.90;71.00;;;;;;5111227;28;20373;-78
2022/06/10 08:54:54;;;;;;;1.58;0.75;;;22.00;70.50;;;;;;5110175;28;20041;-79
2022/06/10 08:57:36;;;;;;;3.03;0.50;;;22.30;65.60;;;;;;5105652;28;20031;-79
2022/06/10 09:00:12;;;;;;;7.03;1.90;;;22.30;61.30;;;;;;5110006;28;20028;-79
2022/06/10 09:02:53;;;;;;;6.18;1.58;;;22.50;64.90;;;;;;5111653;28;20017;-79
2022/06/10 09:05:35;;;;;;;8.77;1.95;;;22.50;63.10;;;;;;5109682;28;20415;-79
2022/06/10 09:08:06;;;;;;;4.90;0.88;;;23.10;60.00;;;;;;5111119;28;20488;-79
2022/06/10 09:11:01;;;;;;;1.80;0.50;;;22.70;59.90;;;;;;5109818;28;20031;-79
2022/06/10 09:13:44;;;;;;;1.13;0.47;;;22.60;60.10;;;;;;5095183;28;20074;-80
2022/06/10 09:16:19;;;;;;;2.50;0.65;;;22.40;62.10;;;;;;5111325;28;20126;-79
2022/06/10 09:19:12;;;;;;;1.88;0.80;;;22.30;63.90;;;;;;5111396;28;20030;-79
2022/06/10 09:21:51;;;;;;;2.03;0.80;;;22.30;60.50;;;;;;5110969;28;20024;-79
2022/06/10 09:24:27;;;;;;;6.57;0.88;;;22.10;62.20;;;;;;5109677;28;20023;-79
2022/06/10 09:27:08;;;;;;;2.58;1.52;;;22.40;62.30;;;;;;5110974;28;20120;-79
2022/06/10 09:29:38;;;;;;;4.07;1.50;;;21.80;62.20;;;;;;5111016;28;20023;-79
2022/06/10 09:32:07;;;;;;;0.50;0.30;;;22.00;61.40;;;;;;5109435;28;20085;-79
2022/06/10 09:34:53;;;;;;;1.17;0.50;;;22.20;60.90;;;;;;5109078;28;20052;-79
2022/06/10 09:37:49;;;;;;;4.18;0.93;;;22.50;60.80;;;;;;5110609;28;20051;-79
2022/06/10 09:40:36;;;;;;;1.00;0.63;;;22.50;60.40;;;;;;5092899;28;20503;-79
2022/06/10 09:43:33;;;;;;;3.53;2.33;;;22.30;59.30;;;;;;5110655;28;20030;-79
2022/06/10 09:46:39;;;;;;;4.15;0.90;;;22.00;59.70;;;;;;5108944;28;20032;-79
2022/06/10 09:49:26;;;;;;;3.08;0.60;;;22.30;58.30;;;;;;5108962;28;20020;-79
2022/06/10 09:52:30;;;;;;;3.40;0.60;;;22.90;55.40;;;;;;5110160;28;20450;-79
2022/06/10 09:54:58;;;;;;;1.10;0.50;;;23.10;56.20;;;;;;5078156;28;20047;-79
2022/06/10 09:57:39;;;;;;;5.03;0.60;;;23.50;57.30;;;;;;5109056;28;20039;-79
2022/06/10 10:00:11;;;;;;;1.25;0.40;;;23.50;57.00;;;;;;5110236;28;20539;-79
2022/06/10 10:03:14;;;;;;;3.72;0.88;;;23.10;57.00;;;;;;5108898;28;20024;-79
2022/06/10 10:06:01;;;;;;;1.38;0.50;;;23.30;57.50;;;;;;5109720;28;20042;-80
2022/06/10 10:08:41;;;;;;;2.22;0.65;;;23.70;59.80;;;;;;5108787;28;20042;-79
2022/06/10 10:11:26;;;;;;;1.33;0.50;;;22.90;58.00;;;;;;5110277;28;20023;-76
2022/06/10 10:14:10;;;;;;;4.82;0.80;;;22.80;59.10;;;;;;5108739;28;20038;-79
2022/06/10 10:16:43;;;;;;;1.23;0.38;;;23.20;55.70;;;;;;5108826;28;20077;-79
2022/06/10 10:19:48;;;;;;;0.55;0.35;;;23.70;54.70;;;;;;5108632;28;20031;-79
2022/06/10 10:22:40;;;;;;;3.72;0.93;;;23.60;55.70;;;;;;5109599;28;20022;-79
2022/06/10 10:25:16;;;;;;;1.08;0.88;;;23.60;57.30;;;;;;5109878;28;20035;-79
2022/06/10 10:27:44;;;;;;;1.83;0.50;;;23.90;54.60;;;;;;5109935;28;20061;-79
2022/06/10 10:30:25;;;;;;;2.33;1.30;;;23.90;53.20;;;;;;5109881;28;20051;-79
2022/06/10 10:33:00;;;;;;;2.25;0.40;;;23.60;51.90;;;;;;5109826;28;20554;-79
2022/06/10 10:35:34;;;;;;;2.42;0.60;;;23.50;52.40;;;;;;5108206;28;20096;-79
2022/06/10 10:38:07;;;;;;;1.35;0.40;;;23.60;52.70;;;;;;5109665;28;20019;-79
2022/06/10 10:40:39;;;;;;;2.08;0.32;;;23.20;54.10;;;;;;5109950;28;20058;-79
2022/06/10 10:43:27;;;;;;;2.10;0.50;;;23.90;51.00;;;;;;5109175;28;20080;-79
2022/06/10 10:46:03;;;;;;;2.03;0.50;;;24.00;52.40;;;;;;5109415;28;20080;-79
2022/06/10 10:48:37;;;;;;;4.40;0.50;;;24.50;51.30;;;;;;5109901;28;20020;-79
2022/06/10 10:51:23;;;;;;;1.63;0.43;;;23.80;49.30;;;;;;5107998;28;20407;-79
2022/06/10 10:53:56;;;;;;;2.25;0.30;;;23.30;52.70;;;;;;5109643;28;20432;-79
2022/06/10 10:56:35;;;;;;;3.17;0.40;;;23.80;52.50;;;;;;5108056;28;20395;-79
2022/06/10 10:59:01;;;;;;;1.67;0.45;;;23.60;51.50;;;;;;5107981;28;20027;-79
2022/06/10 11:01:44;;;;;;;9.15;1.20;;;24.40;50.60;;;;;;5109484;28;20031;-80
2022/06/10 11:04:23;;;;;;;2.60;0.40;;;24.30;49.70;;;;;;5108239;28;20024;-79
2022/06/10 11:07:09;;;;;;;0.93;0.30;;;24.00;51.30;;;;;;5109132;28;20472;-80
2022/06/10 11:09:53;;;;;;;0.50;0.30;;;24.60;48.20;;;;;;5098191;28;20053;-79
2022/06/10 11:12:26;;;;;;;2.47;0.50;;;25.40;47.30;;;;;;5087708;28;20028;-79
2022/06/10 11:15:03;;;;;;;0.55;0.30;;;25.00;49.80;;;;;;5089101;28;20040;-79
2022/06/10 11:17:30;;;;;;;1.70;0.30;;;24.70;48.80;;;;;;5088939;28;20492;-79
2022/06/10 11:20:00;;;;;;;3.53;1.00;;;25.20;47.40;;;;;;5087523;28;20402;-79
2022/06/10 11:22:29;;;;;;;4.40;0.50;;;25.60;47.30;;;;;;5087459;28;20101;-79
2022/06/10 11:25:01;;;;;;;1.00;0.45;;;25.60;47.40;;;;;;5089443;28;20020;-79
2022/06/10 11:27:31;;;;;;;0.55;0.28;;;25.20;51.20;;;;;;5088946;28;20020;-79
2022/06/10 11:30:19;;;;;;;2.08;0.30;;;26.10;48.10;;;;;;5087575;28;20020;-79
2022/06/10 11:32:51;;;;;;;1.60;0.37;;;26.10;45.90;;;;;;5086911;28;20115;-79
2022/06/10 11:35:38;;;;;;;1.05;0.77;;;26.50;45.40;;;;;;5086910;28;20497;-79
2022/06/10 11:38:06;;;;;;;1.45;0.30;;;26.40;46.80;;;;;;5088883;28;20012;-79
2022/06/10 11:40:46;;;;;;;0.35;0.35;;;26.40;45.00;;;;;;5088942;28;20028;-79
2022/06/10 11:43:25;;;;;;;4.50;0.30;;;26.30;46.50;;;;;;5088961;28;20042;-79
2022/06/10 11:46:16;;;;;;;1.55;0.40;;;25.60;48.80;;;;;;5087313;28;20549;-79
2022/06/10 11:49:01;;;;;;;0.30;0.30;;;26.80;49.10;;;;;;5087689;28;20024;-79
2022/06/10 11:51:42;;;;;;;1.98;0.70;;;26.60;46.80;;;;;;5088333;28;20465;-79
2022/06/10 11:54:49;;;;;;;1.95;0.43;;;26.70;47.30;;;;;;5088815;28;20396;-79
2022/06/10 12:00:19;;;;;;;1.55;0.60;;;25.60;48.00;;;;;;5092478;28;20096;-79
2022/06/10 12:03:17;;;;;;;0.40;0.30;;;25.10;46.70;;;;;;5092366;28;20098;-79
2022/06/10 12:05:57;;;;;;;0.50;0.40;;;24.50;48.40;;;;;;5091684;28;20095;-79
2022/06/10 12:08:34;;;;;;;0.85;0.30;;;25.40;50.90;;;;;;5092076;28;20105;-79
2022/06/10 12:11:24;;;;;;;3.10;0.50;;;26.00;48.90;;;;;;5092016;28;20287;-79
2022/06/10 12:14:04;;;;;;;0.65;0.28;;;26.60;48.60;;;;;;5091793;28;20485;-79
2022/06/10 12:16:31;;;;;;;2.55;0.45;;;27.40;46.90;;;;;;5090324;28;20036;-79
2022/06/10 12:19:01;;;;;;;2.38;0.35;;;27.00;46.40;;;;;;5091907;28;20028;-79
2022/06/10 12:21:28;;;;;;;0.55;0.40;;;25.60;46.10;;;;;;5091825;28;20444;-79
2022/06/10 12:23:54;;;;;;;1.27;0.57;;;26.20;48.50;;;;;;5090702;28;20028;-80
2022/06/10 12:26:52;;;;;;;2.38;0.52;;;26.50;47.00;;;;;;5091936;28;20111;-80
2022/06/10 12:30:09;;;;;;;0.30;0.20;;;26.60;46.70;;;;;;5084487;28;20028;-80
2022/06/10 12:32:47;;;;;;;2.17;0.55;;;26.60;46.30;;;;;;5085537;28;20281;-80
2022/06/10 12:35:23;;;;;;;1.65;0.30;;;27.10;46.70;;;;;;5091388;28;20496;-80
2022/06/10 12:37:59;;;;;;;0.93;0.20;;;27.80;43.40;;;;;;5091740;28;20261;-80
2022/06/10 12:40:30;;;;;;;1.55;0.20;;;27.70;42.60;;;;;;5091844;28;20110;-79
2022/06/10 12:43:22;;;;;;;1.15;0.25;;;28.10;42.20;;;;;;5091528;28;20027;-79
2022/06/10 12:45:55;;;;;;;1.33;0.45;;;28.30;43.40;;;;;;5090727;28;20286;-80
2022/06/10 12:48:29;;;;;;;3.40;0.95;;;28.10;44.80;;;;;;5091433;28;20052;-80
2022/06/10 12:50:58;;;;;;;0.70;0.32;;;28.00;45.50;;;;;;5091524;28;20081;-79
2022/06/10 12:53:54;;;;;;;1.33;0.22;;;28.40;43.70;;;;;;5091297;28;20016;-80
2022/06/10 12:56:36;;;;;;;1.52;0.30;;;28.30;41.00;;;;;;5091257;28;20028;-79
2022/06/10 12:59:06;;;;;;;2.20;0.43;;;28.00;43.80;;;;;;5089974;28;20456;-80
2022/06/10 13:01:32;;;;;;;1.42;0.30;;;27.90;42.70;;;;;;5090032;28;20434;-79
2022/06/10 13:04:00;;;;;;;7.18;1.25;;;28.80;41.30;;;;;;5091047;28;20133;-79
2022/06/10 13:06:44;;;;;;;2.00;0.50;;;27.70;42.60;;;;;;5090180;28;20032;-79
2022/06/10 13:09:12;;;;;;;13.00;0.98;;;27.40;42.30;;;;;;5091236;28;20020;-79
2022/06/10 13:11:46;;;;;;;1.30;0.30;;;27.60;45.30;;;;;;5089475;28;20035;-79
2022/06/10 13:14:16;;;;;;;2.72;0.35;;;27.10;43.40;;;;;;5089583;28;20503;-80
2022/06/10 13:17:07;;;;;;;1.67;1.10;;;27.30;44.50;;;;;;5090903;28;20031;-79
2022/06/10 13:19:53;;;;;;;1.05;0.55;;;27.80;46.90;;;;;;5089254;28;20039;-79
2022/06/10 13:22:24;;;;;;;1.55;0.30;;;28.60;42.20;;;;;;5089311;28;20468;-79
2022/06/10 13:24:53;;;;;;;0.43;0.30;;;28.70;43.00;;;;;;5090602;28;20036;-79
2022/06/10 13:27:26;;;;;;;1.08;0.15;;;28.10;42.00;;;;;;5090919;28;20028;-79
2022/06/10 13:29:55;;;;;;;0.40;0.15;;;26.70;39.40;;;;;;5090470;28;20020;-79
2022/06/10 13:32:20;;;;;;;0.30;0.10;;;26.20;42.70;;;;;;5089459;28;20185;-79
2022/06/10 13:34:57;;;;;;;0.63;0.50;;;26.90;41.90;;;;;;5090422;28;20583;-79
2022/06/10 13:37:26;;;;;;;0.73;0.10;;;26.80;41.80;;;;;;5090491;28;20107;-79